Time;durP1;ratioP1;P1;durP2;ratioP2;P2;SDS_P1;SDS_P2;PMS_P1;PMS_P2;Temp;Humidity;BMP_temperature;BMP_pressure;BME280_temperature;BME280_humidity;BME280_pressure;Samples;Min_cycle;Max_cycle;Signal;HPM_P1;HPM_P2
2023/06/20 00:01:08;;;;;;;1.50;0.90;;;24.00;82.00;;;;;;5033655;28;21027;-84
2023/06/20 00:03:36;;;;;;;1.47;0.80;;;24.00;82.70;;;;;;5041333;28;20528;-83
2023/06/20 00:06:03;;;;;;;1.47;0.90;;;24.00;81.90;;;;;;5034297;28;20829;-82
2023/06/20 00:08:29;;;;;;;1.40;0.90;;;24.00;82.50;;;;;;5034360;28;20465;-83
2023/06/20 00:10:56;;;;;;;1.47;0.90;;;23.90;82.70;;;;;;5032579;28;20458;-84
2023/06/20 00:13:23;;;;;;;1.47;0.90;;;23.90;82.80;;;;;;5034166;28;20488;-82
2023/06/20 00:15:50;;;;;;;1.40;0.90;;;23.90;82.70;;;;;;5031069;28;20455;-81
2023/06/20 00:18:18;;;;;;;1.43;0.90;;;23.80;83.00;;;;;;5035186;28;20467;-84
2023/06/20 00:20:47;;;;;;;1.47;0.90;;;23.80;82.10;;;;;;5042067;28;20462;-83
2023/06/20 00:23:14;;;;;;;1.47;0.90;;;23.80;82.90;;;;;;5035717;28;20522;-87
2023/06/20 00:25:40;;;;;;;1.40;0.80;;;23.80;82.30;;;;;;5045018;28;20470;-84
2023/06/20 00:28:08;;;;;;;1.47;0.90;;;23.90;82.50;;;;;;5028381;28;20483;-83
2023/06/20 00:30:35;;;;;;;1.43;0.90;;;23.90;83.00;;;;;;5043451;28;20479;-82
2023/06/20 00:33:02;;;;;;;1.43;0.90;;;23.90;82.60;;;;;;5028182;28;21092;-86
2023/06/20 00:35:29;;;;;;;1.50;1.10;;;23.90;82.90;;;;;;5042802;28;20474;-82
2023/06/20 00:37:57;;;;;;;1.47;0.90;;;23.80;82.50;;;;;;5030303;28;20483;-85
2023/06/20 00:40:24;;;;;;;1.47;0.80;;;23.90;82.90;;;;;;5040409;28;20463;-84
2023/06/20 00:42:51;;;;;;;1.43;0.90;;;23.90;83.70;;;;;;5030883;28;20474;-83
2023/06/20 00:45:30;;;;;;;1.47;0.90;;;23.90;84.60;;;;;;5040207;28;20464;-83
2023/06/20 00:47:58;;;;;;;1.50;0.83;;;23.80;85.40;;;;;;5029444;28;20513;-82
2023/06/20 00:50:26;;;;;;;1.43;0.90;;;23.80;87.20;;;;;;5036055;28;20896;-82
2023/06/20 00:52:59;;;;;;;1.47;0.90;;;23.70;88.20;;;;;;5030748;28;20483;-81
2023/06/20 00:55:27;;;;;;;1.40;0.90;;;23.70;89.10;;;;;;5041051;28;20463;-82
2023/06/20 00:57:56;;;;;;;1.47;0.90;;;23.60;88.80;;;;;;5037591;28;20479;-83
2023/06/20 01:00:24;;;;;;;1.47;0.90;;;23.60;88.70;;;;;;5049588;28;20459;-81
2023/06/20 01:02:52;;;;;;;1.43;0.90;;;23.50;89.40;;;;;;5035642;28;20509;-85
2023/06/20 01:05:27;;;;;;;1.47;0.90;;;23.50;89.40;;;;;;5045369;28;20464;-81
2023/06/20 01:08:03;;;;;;;1.47;0.90;;;23.40;90.20;;;;;;5034118;28;20793;-84
2023/06/20 01:10:40;;;;;;;1.43;0.90;;;23.30;89.80;;;;;;5042317;28;20466;-84
2023/06/20 01:13:16;;;;;;;1.50;0.90;;;23.30;90.40;;;;;;5044338;28;20474;-81
2023/06/20 01:15:47;;;;;;;1.47;0.90;;;23.20;90.50;;;;;;5043675;28;20505;-81
2023/06/20 01:18:25;;;;;;;1.47;0.87;;;23.20;90.80;;;;;;5040733;28;20481;-84
2023/06/20 01:20:57;;;;;;;1.43;0.90;;;23.20;91.00;;;;;;5032854;28;20519;-82
2023/06/20 01:23:31;;;;;;;1.47;0.90;;;23.10;90.70;;;;;;5033230;28;20596;-85
2023/06/20 01:26:03;;;;;;;1.50;0.90;;;23.10;90.70;;;;;;5031459;28;20526;-86
2023/06/20 01:28:38;;;;;;;1.50;0.90;;;23.10;90.90;;;;;;5034278;28;20881;-85
2023/06/20 01:31:09;;;;;;;1.43;0.90;;;23.00;91.20;;;;;;5024973;28;20463;-85
2023/06/20 01:33:45;;;;;;;1.47;0.90;;;23.00;91.20;;;;;;5035129;28;20499;-85
2023/06/20 01:36:15;;;;;;;1.50;0.90;;;22.90;91.40;;;;;;5025338;28;20474;-80
2023/06/20 01:38:45;;;;;;;1.40;0.90;;;22.80;91.50;;;;;;5032294;28;20455;-83
2023/06/20 01:41:14;;;;;;;1.50;0.90;;;22.80;91.70;;;;;;5029602;28;20888;-84
2023/06/20 01:43:43;;;;;;;1.50;1.03;;;22.80;91.50;;;;;;5034866;28;20466;-82
2023/06/20 01:46:11;;;;;;;1.40;0.80;;;22.80;91.60;;;;;;5031218;28;20492;-82
2023/06/20 01:48:40;;;;;;;1.50;0.90;;;22.80;92.30;;;;;;5037276;28;20463;-81
2023/06/20 01:51:07;;;;;;;1.50;0.90;;;22.80;92.20;;;;;;5021482;28;20469;-80
2023/06/20 01:53:36;;;;;;;1.47;0.90;;;22.80;92.60;;;;;;5032409;28;20488;-81
2023/06/20 01:56:06;;;;;;;1.43;0.90;;;22.70;93.20;;;;;;5032987;28;20467;-81
2023/06/20 01:58:34;;;;;;;6.03;1.67;;;22.60;93.70;;;;;;5040130;28;20460;-81
2023/06/20 02:01:03;;;;;;;1.50;1.00;;;22.60;93.00;;;;;;5033898;28;20455;-81
2023/06/20 02:03:31;;;;;;;1.50;0.90;;;22.60;93.60;;;;;;5039533;28;20463;-81
2023/06/20 02:06:00;;;;;;;1.50;0.90;;;22.60;93.70;;;;;;5035671;28;20465;-82
2023/06/20 02:08:27;;;;;;;1.50;0.90;;;22.60;93.90;;;;;;5043565;28;20455;-80
2023/06/20 02:10:55;;;;;;;1.47;0.90;;;22.60;93.40;;;;;;5036580;28;20463;-80
2023/06/20 02:13:24;;;;;;;1.50;1.10;;;22.60;93.20;;;;;;5039293;28;20496;-80
2023/06/20 02:15:53;;;;;;;1.40;0.90;;;22.70;93.50;;;;;;5035996;28;20459;-80
2023/06/20 02:18:20;;;;;;;1.43;0.90;;;22.70;93.30;;;;;;5036947;28;21092;-80
2023/06/20 02:20:50;;;;;;;1.43;0.90;;;22.60;94.20;;;;;;5046275;28;20463;-80
2023/06/20 02:23:24;;;;;;;1.47;0.90;;;22.60;94.40;;;;;;5038979;28;20560;-81
2023/06/20 02:25:52;;;;;;;1.47;0.90;;;22.50;93.90;;;;;;5035615;28;21136;-81
2023/06/20 02:28:21;;;;;;;1.40;0.90;;;22.50;94.80;;;;;;5037204;28;20456;-81
2023/06/20 02:30:51;;;;;;;1.40;0.90;;;22.50;93.80;;;;;;5042873;28;20482;-81
2023/06/20 02:33:18;;;;;;;1.50;0.80;;;22.60;94.40;;;;;;5040430;28;20492;-80
2023/06/20 02:35:47;;;;;;;1.40;0.90;;;22.60;94.70;;;;;;5040610;28;20465;-80
2023/06/20 02:38:14;;;;;;;1.50;0.90;;;22.60;95.40;;;;;;5034294;28;21588;-81
2023/06/20 02:40:41;;;;;;;1.50;0.90;;;22.60;95.70;;;;;;5031828;28;20463;-80
2023/06/20 02:43:08;;;;;;;1.43;0.90;;;22.60;95.50;;;;;;5039707;28;20480;-81
2023/06/20 02:45:35;;;;;;;1.50;0.90;;;22.60;95.70;;;;;;5045344;28;20479;-82
2023/06/20 02:48:19;;;;;;;1.50;0.90;;;22.50;96.40;;;;;;5024131;28;21031;-81
2023/06/20 02:50:54;;;;;;;1.50;0.90;;;22.40;97.00;;;;;;5055621;28;20459;-79
2023/06/20 02:53:26;;;;;;;1.50;0.90;;;22.40;96.80;;;;;;5029202;28;20478;-81
2023/06/20 02:55:57;;;;;;;1.50;0.90;;;22.30;97.00;;;;;;5040187;28;20466;-79
2023/06/20 02:58:27;;;;;;;1.50;0.90;;;22.30;97.30;;;;;;5038862;28;20528;-80
2023/06/20 03:00:55;;;;;;;1.50;1.00;;;22.20;98.20;;;;;;5024745;28;20534;-80
2023/06/20 03:03:26;;;;;;;1.47;0.90;;;22.20;98.20;;;;;;5030002;28;20501;-81
2023/06/20 03:05:58;;;;;;;1.50;0.90;;;22.10;98.20;;;;;;5017714;28;20477;-80
2023/06/20 03:08:27;;;;;;;1.50;0.90;;;22.10;98.20;;;;;;5027105;28;20515;-80
2023/06/20 03:10:55;;;;;;;1.50;0.90;;;22.00;98.20;;;;;;5010341;28;20458;-80
2023/06/20 03:13:23;;;;;;;1.50;0.90;;;21.90;98.20;;;;;;5038117;28;20496;-80
2023/06/20 03:15:50;;;;;;;1.43;0.90;;;21.90;98.20;;;;;;5021364;28;20456;-81
2023/06/20 03:18:18;;;;;;;1.50;0.83;;;21.90;98.20;;;;;;5032854;28;20459;-80
2023/06/20 03:20:48;;;;;;;1.50;0.90;;;21.80;98.20;;;;;;5030219;28;20492;-81
2023/06/20 03:23:15;;;;;;;1.50;0.90;;;21.90;98.20;;;;;;5017840;28;20484;-82
2023/06/20 03:25:42;;;;;;;1.50;0.90;;;21.90;98.20;;;;;;5024084;28;20462;-80
2023/06/20 03:28:08;;;;;;;1.43;0.90;;;21.90;98.20;;;;;;5019191;28;20486;-80
2023/06/20 03:30:35;;;;;;;1.43;0.90;;;22.00;98.20;;;;;;5029839;28;20943;-80
2023/06/20 03:33:02;;;;;;;1.50;0.90;;;22.00;98.20;;;;;;5011459;28;20979;-79
2023/06/20 03:35:29;;;;;;;1.50;0.90;;;22.00;98.20;;;;;;5023556;28;20460;-80
2023/06/20 03:37:57;;;;;;;1.47;0.90;;;22.00;98.20;;;;;;5018280;28;20475;-79
2023/06/20 03:40:24;;;;;;;1.50;0.90;;;22.00;98.20;;;;;;5024613;28;20471;-80
2023/06/20 03:42:51;;;;;;;1.40;0.90;;;22.00;98.20;;;;;;5030041;28;20483;-79
2023/06/20 03:47:47;;;;;;;1.50;0.90;;;22.00;98.20;;;;;;4990891;28;20477;-79
2023/06/20 03:50:14;;;;;;;1.43;0.90;;;22.00;98.20;;;;;;5018746;28;20471;-81
2023/06/20 03:52:41;;;;;;;1.50;0.90;;;22.00;98.20;;;;;;4996396;28;20625;-80
2023/06/20 03:55:09;;;;;;;1.43;0.90;;;22.00;98.20;;;;;;5010555;28;21014;-81
2023/06/20 03:57:36;;;;;;;1.50;0.90;;;22.00;98.20;;;;;;4972714;28;20527;-81
2023/06/20 04:00:09;;;;;;;1.50;0.90;;;22.00;98.20;;;;;;4998118;28;20495;-80
2023/06/20 04:02:36;;;;;;;1.47;0.90;;;22.00;98.20;;;;;;4986988;28;20481;-81
2023/06/20 04:05:02;;;;;;;1.43;0.90;;;22.00;98.20;;;;;;5002544;28;20464;-81
2023/06/20 04:07:31;;;;;;;1.47;0.90;;;22.00;98.20;;;;;;4985733;28;21043;-80
2023/06/20 04:09:58;;;;;;;1.47;0.90;;;22.10;98.20;;;;;;5000711;28;20465;-80
2023/06/20 04:12:26;;;;;;;1.50;0.90;;;22.00;98.20;;;;;;4975588;28;20502;-84
2023/06/20 04:14:53;;;;;;;1.50;0.90;;;21.90;98.20;;;;;;4997728;28;20453;-80
2023/06/20 04:17:20;;;;;;;1.43;0.90;;;21.90;98.20;;;;;;4976806;28;20512;-80
2023/06/20 04:19:47;;;;;;;1.43;0.90;;;21.90;98.20;;;;;;5000748;28;20458;-80
2023/06/20 04:22:14;;;;;;;1.40;0.90;;;21.90;98.20;;;;;;4988786;28;20535;-84
2023/06/20 04:24:41;;;;;;;1.47;0.90;;;22.00;98.20;;;;;;5003864;28;20457;-83
2023/06/20 04:27:08;;;;;;;1.50;0.90;;;22.00;98.20;;;;;;4985325;28;20489;-83
2023/06/20 04:29:36;;;;;;;1.43;0.90;;;22.00;98.20;;;;;;5003248;28;20473;-83
2023/06/20 04:32:04;;;;;;;1.40;0.90;;;22.00;98.20;;;;;;4990194;28;20494;-83
2023/06/20 04:34:30;;;;;;;1.47;0.90;;;22.10;98.20;;;;;;4999814;28;20496;-85
2023/06/20 04:36:57;;;;;;;1.47;0.90;;;22.10;98.20;;;;;;4981523;28;20498;-81
2023/06/20 04:39:24;;;;;;;1.50;0.90;;;22.10;98.20;;;;;;4994526;28;20485;-82
2023/06/20 04:41:51;;;;;;;1.43;0.90;;;22.10;98.20;;;;;;4990945;28;20488;-83
2023/06/20 04:44:17;;;;;;;1.50;0.90;;;22.10;98.20;;;;;;4997862;28;20488;-82
2023/06/20 04:46:46;;;;;;;1.40;0.90;;;22.10;98.20;;;;;;4984490;28;20480;-79
2023/06/20 04:49:13;;;;;;;1.40;0.90;;;22.10;98.20;;;;;;4996686;28;20466;-82
2023/06/20 04:51:40;;;;;;;1.40;0.90;;;22.10;98.20;;;;;;4984209;28;20491;-83
2023/06/20 04:54:07;;;;;;;1.50;0.90;;;22.10;98.20;;;;;;5001099;28;20485;-82
2023/06/20 04:56:40;;;;;;;1.43;0.90;;;22.10;98.20;;;;;;4990460;28;20547;-83
2023/06/20 04:59:07;;;;;;;1.50;0.90;;;22.10;98.20;;;;;;5000548;28;20457;-81
2023/06/20 05:01:34;;;;;;;1.47;0.90;;;22.00;98.20;;;;;;4991238;28;20534;-82
2023/06/20 05:04:03;;;;;;;1.40;0.90;;;22.00;98.20;;;;;;4996976;28;20952;-83
2023/06/20 05:06:30;;;;;;;1.50;0.90;;;22.00;98.20;;;;;;4987204;28;20485;-84
2023/06/20 05:08:57;;;;;;;1.47;0.90;;;22.10;98.20;;;;;;4997764;28;20459;-82
2023/06/20 05:11:23;;;;;;;1.43;0.90;;;22.20;98.20;;;;;;4988167;28;21019;-85
2023/06/20 05:13:50;;;;;;;1.43;0.90;;;22.20;98.20;;;;;;4997380;28;20515;-84
2023/06/20 05:16:17;;;;;;;1.40;0.90;;;22.20;98.20;;;;;;4991385;28;20776;-81
2023/06/20 05:18:44;;;;;;;1.43;0.90;;;22.20;98.20;;;;;;4995741;28;20468;-79
2023/06/20 05:21:12;;;;;;;1.50;0.90;;;22.20;98.20;;;;;;4993348;28;20539;-81
2023/06/20 05:23:39;;;;;;;1.47;0.90;;;22.20;98.20;;;;;;4992576;28;20468;-80
2023/06/20 05:26:06;;;;;;;1.60;1.40;;;22.20;98.20;;;;;;4993505;28;20508;-81
2023/06/20 05:28:33;;;;;;;1.47;0.90;;;22.20;98.20;;;;;;4991444;28;20457;-82
2023/06/20 05:30:59;;;;;;;1.43;0.90;;;22.20;98.20;;;;;;4994807;28;20865;-81
2023/06/20 05:33:26;;;;;;;1.50;1.20;;;22.20;98.20;;;;;;4993256;28;20504;-82
2023/06/20 05:35:53;;;;;;;1.43;0.90;;;22.20;98.20;;;;;;4995740;28;20483;-80
2023/06/20 05:38:21;;;;;;;1.43;0.90;;;22.30;98.20;;;;;;4997652;28;20464;-85
2023/06/20 05:40:48;;;;;;;1.70;1.20;;;22.30;98.20;;;;;;4996944;28;20458;-82
2023/06/20 05:43:15;;;;;;;1.47;0.90;;;22.40;98.20;;;;;;4994785;28;20475;-84
2023/06/20 05:45:41;;;;;;;2.23;2.03;;;22.40;98.20;;;;;;5001438;28;20545;-81
2023/06/20 05:48:09;;;;;;;1.50;0.80;;;22.40;98.20;;;;;;4980529;28;20496;-82
2023/06/20 05:50:36;;;;;;;1.50;0.90;;;22.50;98.20;;;;;;5001742;28;20453;-82
2023/06/20 05:53:03;;;;;;;1.50;0.90;;;22.70;98.20;;;;;;4979237;28;20487;-81
2023/06/20 05:55:31;;;;;;;1.50;0.90;;;22.90;98.20;;;;;;5000818;28;20698;-82
2023/06/20 05:57:57;;;;;;;1.60;1.20;;;23.00;98.20;;;;;;4973553;28;20485;-81
2023/06/20 06:00:24;;;;;;;1.50;0.90;;;23.10;98.20;;;;;;5002364;28;20954;-82
2023/06/20 06:02:51;;;;;;;1.50;0.80;;;23.30;98.20;;;;;;4979959;28;20485;-80
2023/06/20 06:05:18;;;;;;;2.23;2.03;;;23.50;98.20;;;;;;5002709;28;20487;-81
2023/06/20 06:07:45;;;;;;;1.50;0.90;;;23.60;98.20;;;;;;4991037;28;20535;-81
2023/06/20 06:10:12;;;;;;;1.50;0.90;;;23.70;98.20;;;;;;5004322;28;20469;-79
2023/06/20 06:12:40;;;;;;;1.47;0.90;;;23.80;98.20;;;;;;4982666;28;20522;-81
2023/06/20 06:15:08;;;;;;;1.50;0.90;;;24.00;98.20;;;;;;5001092;28;20493;-82
2023/06/20 06:17:35;;;;;;;1.43;0.90;;;24.10;98.20;;;;;;4983069;28;20547;-83
2023/06/20 06:20:03;;;;;;;1.47;0.80;;;24.30;98.20;;;;;;5004432;28;20485;-82
2023/06/20 06:22:30;;;;;;;1.50;1.00;;;24.40;98.20;;;;;;4984078;28;20489;-80
2023/06/20 06:24:57;;;;;;;1.50;1.00;;;24.50;98.20;;;;;;5006801;28;21093;-81
2023/06/20 06:27:24;;;;;;;1.47;0.80;;;24.70;98.20;;;;;;4984849;28;20481;-79
2023/06/20 06:29:52;;;;;;;1.67;1.00;;;24.70;98.10;;;;;;5004730;28;20488;-82
2023/06/20 06:32:20;;;;;;;1.47;0.90;;;24.70;98.20;;;;;;4988065;28;21027;-79
2023/06/20 06:34:49;;;;;;;1.43;0.90;;;24.80;97.90;;;;;;5000749;28;20496;-82
2023/06/20 06:37:16;;;;;;;1.50;0.90;;;25.00;97.40;;;;;;4988523;28;20536;-82
2023/06/20 06:39:42;;;;;;;1.50;0.90;;;25.10;96.90;;;;;;4998479;28;20611;-85
2023/06/20 06:42:09;;;;;;;1.50;0.90;;;25.10;96.20;;;;;;4986538;28;20484;-82
2023/06/20 06:44:36;;;;;;;1.47;0.90;;;25.20;96.20;;;;;;5000192;28;20449;-81
2023/06/20 06:47:05;;;;;;;1.50;0.80;;;25.30;95.60;;;;;;4985153;28;20488;-81
2023/06/20 06:49:32;;;;;;;1.50;0.90;;;25.40;95.00;;;;;;5000503;28;20548;-80
2023/06/20 06:51:59;;;;;;;1.70;1.47;;;25.50;95.00;;;;;;4986743;28;20492;-81
2023/06/20 06:54:26;;;;;;;1.50;0.83;;;25.50;95.30;;;;;;4995631;28;20485;-79
2023/06/20 06:56:53;;;;;;;1.50;1.00;;;25.70;94.20;;;;;;4990218;28;20568;-83
2023/06/20 06:59:19;;;;;;;1.50;1.00;;;25.80;93.70;;;;;;4997198;28;20535;-84
2023/06/20 07:01:46;;;;;;;1.50;0.90;;;26.00;93.90;;;;;;4987615;28;20503;-80
2023/06/20 07:04:15;;;;;;;1.50;1.20;;;26.20;93.30;;;;;;4994394;28;20457;-80
2023/06/20 07:06:42;;;;;;;1.50;0.90;;;26.30;92.10;;;;;;4986981;28;20565;-81
2023/06/20 07:09:09;;;;;;;1.40;0.80;;;26.30;92.80;;;;;;4997056;28;20497;-80
2023/06/20 07:11:36;;;;;;;1.70;1.40;;;26.20;93.00;;;;;;4991179;28;20480;-80
2023/06/20 07:14:03;;;;;;;1.50;0.90;;;26.30;93.00;;;;;;4995103;28;20485;-79
2023/06/20 07:16:31;;;;;;;1.57;1.00;;;26.20;92.90;;;;;;4980186;28;20485;-78
2023/06/20 07:18:58;;;;;;;1.50;0.90;;;26.10;93.60;;;;;;4995594;28;20483;-82
2023/06/20 07:21:27;;;;;;;1.43;0.90;;;26.20;93.00;;;;;;4988656;28;20481;-81
2023/06/20 07:23:53;;;;;;;1.50;0.90;;;26.50;93.20;;;;;;4996439;28;20490;-81
2023/06/20 07:26:20;;;;;;;1.47;0.90;;;26.60;91.80;;;;;;4986413;28;20835;-82
2023/06/20 07:28:47;;;;;;;1.40;0.83;;;26.70;91.80;;;;;;4994386;28;20515;-80
2023/06/20 07:31:17;;;;;;;1.50;1.07;;;27.00;91.10;;;;;;4988477;28;20480;-81
2023/06/20 07:33:44;;;;;;;1.47;0.80;;;27.10;89.70;;;;;;4993105;28;20456;-80
2023/06/20 07:36:11;;;;;;;1.50;0.90;;;27.30;90.00;;;;;;4987475;28;20496;-82
2023/06/20 07:38:39;;;;;;;1.50;1.10;;;27.40;89.50;;;;;;4990966;28;20461;-81
2023/06/20 07:41:06;;;;;;;1.50;0.80;;;27.50;89.40;;;;;;4985638;28;20464;-81
2023/06/20 07:43:33;;;;;;;1.50;1.00;;;27.70;89.20;;;;;;4990731;28;20470;-81
2023/06/20 07:46:00;;;;;;;1.47;0.80;;;27.80;88.00;;;;;;4987174;28;20490;-81
2023/06/20 07:48:28;;;;;;;1.47;0.80;;;28.00;87.40;;;;;;4992698;28;20465;-80
2023/06/20 07:50:55;;;;;;;1.43;0.80;;;28.30;87.00;;;;;;4991343;28;20463;-80
2023/06/20 07:53:22;;;;;;;1.50;0.80;;;28.40;85.90;;;;;;4986738;28;20982;-79
2023/06/20 07:55:52;;;;;;;1.50;0.80;;;28.50;85.30;;;;;;4987626;28;20495;-81
2023/06/20 07:58:19;;;;;;;1.50;0.80;;;28.40;86.00;;;;;;4988860;28;20553;-81
2023/06/20 08:00:46;;;;;;;1.47;0.80;;;28.30;86.00;;;;;;5001199;28;20878;-79
2023/06/20 08:03:13;;;;;;;1.50;0.90;;;28.40;86.20;;;;;;4968010;28;20492;-78
2023/06/20 08:05:39;;;;;;;1.50;0.90;;;28.70;85.40;;;;;;5004949;28;20543;-79
2023/06/20 08:08:06;;;;;;;1.80;1.43;;;28.90;85.30;;;;;;4979771;28;20480;-79
2023/06/20 08:10:33;;;;;;;1.50;0.80;;;28.90;84.70;;;;;;4996863;28;20480;-80
2023/06/20 08:13:01;;;;;;;1.47;0.80;;;28.90;84.30;;;;;;4983227;28;20679;-82
2023/06/20 08:15:28;;;;;;;1.50;1.03;;;29.00;84.20;;;;;;4998274;28;20501;-81
2023/06/20 08:17:55;;;;;;;1.47;0.80;;;29.20;84.20;;;;;;4979360;28;20498;-81
2023/06/20 08:20:21;;;;;;;1.47;0.80;;;29.50;83.70;;;;;;4995973;28;20472;-82
2023/06/20 08:22:48;;;;;;;1.47;0.80;;;29.80;83.70;;;;;;4990925;28;20528;-82
2023/06/20 08:25:15;;;;;;;1.50;0.80;;;30.10;81.30;;;;;;5001056;28;20476;-82
2023/06/20 08:27:42;;;;;;;1.50;0.80;;;30.30;80.50;;;;;;4983635;28;20571;-82
2023/06/20 08:30:12;;;;;;;1.47;0.80;;;30.20;80.50;;;;;;5001597;28;20460;-82
2023/06/20 08:32:41;;;;;;;1.50;0.80;;;30.40;80.70;;;;;;4983348;28;20679;-82
2023/06/20 08:35:09;;;;;;;1.43;0.80;;;30.40;78.90;;;;;;4997646;28;20485;-82
2023/06/20 08:37:36;;;;;;;1.50;0.80;;;30.20;79.20;;;;;;4984597;28;21019;-83
2023/06/20 08:40:08;;;;;;;1.47;0.80;;;30.00;79.50;;;;;;5003518;28;20476;-87
2023/06/20 08:42:35;;;;;;;1.47;0.90;;;29.90;80.20;;;;;;4986915;28;20485;-84
2023/06/20 08:45:02;;;;;;;1.43;0.80;;;30.00;80.10;;;;;;5000214;28;20899;-86
2023/06/20 08:47:30;;;;;;;1.47;0.80;;;30.10;79.40;;;;;;4986526;28;20504;-85
2023/06/20 08:49:57;;;;;;;1.47;0.80;;;30.20;78.50;;;;;;4998908;28;20461;-84
2023/06/20 08:52:28;;;;;;;1.47;0.80;;;30.40;79.10;;;;;;4986322;28;20576;-85
2023/06/20 08:54:58;;;;;;;1.50;0.80;;;30.70;78.80;;;;;;4997644;28;20507;-83
2023/06/20 08:57:25;;;;;;;1.50;0.87;;;31.00;77.40;;;;;;4983742;28;20495;-83
2023/06/20 08:59:53;;;;;;;1.50;0.90;;;30.80;78.30;;;;;;5003042;28;20459;-84
2023/06/20 09:02:23;;;;;;;1.50;1.00;;;31.00;78.50;;;;;;4990114;28;20503;-88
2023/06/20 09:05:03;;;;;;;1.43;0.80;;;31.30;78.50;;;;;;5009209;28;20538;-84
2023/06/20 09:07:36;;;;;;;1.50;0.80;;;31.60;77.40;;;;;;4982690;28;20496;-84
2023/06/20 09:10:03;;;;;;;1.50;0.80;;;31.80;76.50;;;;;;5004946;28;20479;-84
2023/06/20 09:12:46;;;;;;;1.50;0.83;;;32.00;75.50;;;;;;4989522;28;20237;-84
2023/06/20 09:15:14;;;;;;;1.47;0.80;;;32.30;74.40;;;;;;4999337;28;20348;-82
2023/06/20 09:17:42;;;;;;;1.43;0.80;;;32.30;74.30;;;;;;4988156;28;20248;-85
2023/06/20 09:20:13;;;;;;;1.43;0.80;;;32.20;73.20;;;;;;5004631;28;20268;-85
2023/06/20 09:22:41;;;;;;;1.43;0.80;;;32.20;73.10;;;;;;4983989;28;20292;-86
2023/06/20 09:25:09;;;;;;;1.40;0.80;;;32.30;74.20;;;;;;5003595;28;20227;-84
2023/06/20 09:27:36;;;;;;;1.50;0.87;;;32.30;73.80;;;;;;4993210;28;20236;-86
2023/06/20 09:30:04;;;;;;;1.43;0.90;;;32.50;74.20;;;;;;4997835;28;20213;-85
2023/06/20 09:32:36;;;;;;;1.43;0.80;;;32.80;73.80;;;;;;4990938;28;20236;-84
2023/06/20 09:35:04;;;;;;;1.47;0.80;;;32.80;72.10;;;;;;5004077;28;20233;-86
2023/06/20 09:37:39;;;;;;;1.50;0.90;;;32.80;73.20;;;;;;4987961;28;20297;-84
2023/06/20 09:40:09;;;;;;;1.47;0.80;;;33.00;72.10;;;;;;4995717;28;20205;-85
2023/06/20 09:42:36;;;;;;;1.47;0.80;;;33.20;72.30;;;;;;4988807;28;20233;-83
2023/06/20 09:45:03;;;;;;;1.45;0.80;;;33.30;70.80;;;;;;5000649;28;21898;-85
2023/06/20 09:47:30;;;;;;;1.50;1.03;;;33.30;71.90;;;;;;4983326;28;20229;-86
2023/06/20 09:49:58;;;;;;;1.42;0.80;;;33.40;72.10;;;;;;5006031;28;20608;-84
2023/06/20 09:52:32;;;;;;;1.48;0.80;;;33.40;71.20;;;;;;4978032;28;20712;-83
2023/06/20 09:55:01;;;;;;;1.43;0.80;;;33.10;72.00;;;;;;4993286;28;20243;-84
2023/06/20 09:57:35;;;;;;;1.47;0.80;;;32.70;72.80;;;;;;4990080;28;20280;-85
2023/06/20 10:00:10;;;;;;;1.47;0.80;;;32.60;73.20;;;;;;5088879;23;20277;-84
2023/06/20 10:02:41;;;;;;;1.40;0.90;;;32.60;73.80;;;;;;4976235;28;20260;-79
2023/06/20 10:05:09;;;;;;;1.43;0.80;;;32.60;72.60;;;;;;4980215;28;20233;-86
2023/06/20 10:07:37;;;;;;;1.43;0.80;;;32.60;73.60;;;;;;4983828;28;20287;-83
2023/06/20 10:10:06;;;;;;;1.50;0.90;;;32.80;73.40;;;;;;4981697;28;20210;-83
2023/06/20 10:12:33;;;;;;;1.43;0.80;;;33.00;73.50;;;;;;4984996;28;20284;-83
2023/06/20 10:15:02;;;;;;;1.40;0.80;;;33.40;72.50;;;;;;4996927;28;20233;-82
2023/06/20 10:17:34;;;;;;;1.50;0.90;;;33.70;71.70;;;;;;4995199;28;20233;-81
2023/06/20 10:20:01;;;;;;;1.42;0.80;;;33.90;70.80;;;;;;4999022;28;20300;-82
2023/06/20 10:22:35;;;;;;;1.67;1.58;;;33.90;70.00;;;;;;4985005;28;20631;-81
2023/06/20 10:25:11;;;;;;;1.48;0.90;;;33.80;69.90;;;;;;5001591;28;20204;-81
2023/06/20 10:27:39;;;;;;;1.42;0.80;;;33.80;70.70;;;;;;4982888;28;20240;-82
2023/06/20 10:30:07;;;;;;;1.45;0.80;;;33.90;70.80;;;;;;4995111;28;20205;-82
2023/06/20 10:32:34;;;;;;;1.42;0.80;;;34.20;70.60;;;;;;4995023;28;20305;-82
2023/06/20 10:35:07;;;;;;;1.42;0.80;;;34.40;70.50;;;;;;5002835;28;20738;-81
2023/06/20 10:37:38;;;;;;;1.48;0.80;;;34.70;69.70;;;;;;4990944;28;20240;-84
2023/06/20 10:40:09;;;;;;;1.42;0.80;;;34.90;69.60;;;;;;4995967;28;20209;-81
2023/06/20 10:42:41;;;;;;;1.45;0.80;;;35.10;69.30;;;;;;4990586;28;20229;-82
2023/06/20 10:45:22;;;;;;;1.40;0.90;;;35.40;67.70;;;;;;4992248;28;20749;-83
2023/06/20 10:47:49;;;;;;;1.40;0.80;;;35.60;67.20;;;;;;4984495;28;20261;-81
2023/06/20 10:50:16;;;;;;;1.40;0.80;;;35.60;65.00;;;;;;4993494;28;20244;-80
2023/06/20 10:52:43;;;;;;;1.42;0.80;;;35.80;64.80;;;;;;4992304;28;20225;-81
2023/06/20 10:55:14;;;;;;;1.42;0.80;;;35.80;63.80;;;;;;4997380;28;20236;-82
2023/06/20 10:57:44;;;;;;;1.40;0.80;;;35.90;64.70;;;;;;4988362;28;20228;-82
2023/06/20 11:00:14;;;;;;;1.40;0.80;;;36.00;64.50;;;;;;4995628;28;20265;-80
2023/06/20 11:02:41;;;;;;;1.40;0.80;;;36.10;63.90;;;;;;4981574;28;20237;-80
2023/06/20 11:05:10;;;;;;;1.40;0.80;;;36.20;63.90;;;;;;4998264;28;20277;-84
2023/06/20 11:07:50;;;;;;;1.40;0.80;;;36.20;65.30;;;;;;4989080;28;20272;-82
2023/06/20 11:10:20;;;;;;;1.40;0.80;;;36.40;64.60;;;;;;4995352;28;20272;-81
2023/06/20 11:12:47;;;;;;;1.40;0.80;;;36.50;63.40;;;;;;4987816;28;20233;-79
2023/06/20 11:15:22;;;;;;;1.40;0.80;;;36.60;63.80;;;;;;5001191;28;20237;-84
2023/06/20 11:17:50;;;;;;;1.40;0.80;;;36.70;62.60;;;;;;4994922;28;20229;-81
2023/06/20 11:20:17;;;;;;;1.40;0.80;;;36.70;63.50;;;;;;4997217;28;20240;-81
2023/06/20 11:22:45;;;;;;;1.70;1.27;;;36.60;62.80;;;;;;4991239;28;20313;-81
2023/06/20 11:25:12;;;;;;;1.40;0.80;;;36.10;64.20;;;;;;5001285;28;20301;-82
2023/06/20 11:27:41;;;;;;;1.40;0.80;;;35.90;64.30;;;;;;4983565;28;20233;-83
2023/06/20 11:30:09;;;;;;;1.40;0.80;;;36.00;65.50;;;;;;4999794;28;20273;-84
2023/06/20 11:32:36;;;;;;;1.40;0.80;;;36.30;65.30;;;;;;4982777;28;20719;-81
2023/06/20 11:35:05;;;;;;;1.40;0.80;;;36.30;63.90;;;;;;5002825;28;20236;-85
2023/06/20 11:37:32;;;;;;;1.40;0.80;;;36.20;63.80;;;;;;4992353;28;20268;-79
2023/06/20 11:39:59;;;;;;;1.40;0.80;;;36.30;64.60;;;;;;4999796;28;20213;-81
2023/06/20 11:42:33;;;;;;;1.40;0.80;;;36.30;64.50;;;;;;4990778;28;20325;-81
2023/06/20 11:45:09;;;;;;;1.35;0.80;;;36.20;63.60;;;;;;4998738;28;20208;-82
2023/06/20 11:47:36;;;;;;;1.40;0.80;;;35.90;64.70;;;;;;4994474;28;20247;-80
2023/06/20 11:50:03;;;;;;;1.40;0.80;;;36.00;64.00;;;;;;4994692;28;20231;-81
2023/06/20 11:52:31;;;;;;;1.40;0.80;;;36.10;63.70;;;;;;4994454;28;20228;-78
2023/06/20 11:54:59;;;;;;;1.38;0.80;;;36.20;65.20;;;;;;4993599;28;20256;-79
2023/06/20 11:57:27;;;;;;;1.40;0.90;;;36.40;63.50;;;;;;4995975;28;20286;-82
2023/06/20 11:59:54;;;;;;;1.40;0.80;;;36.70;63.90;;;;;;4995887;28;20640;-82
2023/06/20 12:02:26;;;;;;;1.40;0.95;;;37.10;62.80;;;;;;4988101;28;20225;-83
2023/06/20 12:04:57;;;;;;;1.45;0.90;;;37.30;61.70;;;;;;4998041;28;20201;-80
2023/06/20 12:07:25;;;;;;;1.50;1.00;;;37.40;62.10;;;;;;4994841;28;20232;-82
2023/06/20 12:09:52;;;;;;;1.40;0.80;;;37.60;63.00;;;;;;4995966;28;20288;-81
2023/06/20 12:12:19;;;;;;;1.40;0.80;;;38.00;61.00;;;;;;4990674;28;20236;-82
2023/06/20 12:14:51;;;;;;;1.40;0.80;;;38.00;60.50;;;;;;4994903;28;20265;-84
2023/06/20 12:17:19;;;;;;;1.40;0.80;;;37.60;59.50;;;;;;4982792;28;20225;-80
2023/06/20 12:19:53;;;;;;;1.40;0.80;;;37.30;60.60;;;;;;4992683;28;20202;-81
2023/06/20 12:22:20;;;;;;;1.40;0.80;;;37.20;60.80;;;;;;4996532;28;20228;-80
2023/06/20 12:24:47;;;;;;;1.38;0.80;;;37.00;60.70;;;;;;4996701;28;20220;-82
2023/06/20 12:27:14;;;;;;;1.40;0.80;;;36.80;61.60;;;;;;4990765;28;20233;-83
2023/06/20 12:29:41;;;;;;;2.33;1.00;;;36.30;63.00;;;;;;4993834;28;20366;-83
2023/06/20 12:32:09;;;;;;;1.40;0.80;;;36.50;62.80;;;;;;4977355;28;20700;-84
2023/06/20 12:34:36;;;;;;;1.40;0.90;;;36.80;62.50;;;;;;4994716;28;20519;-79
2023/06/20 12:37:04;;;;;;;1.40;0.80;;;37.00;61.00;;;;;;4982905;28;20286;-84
2023/06/20 12:39:31;;;;;;;1.40;0.80;;;37.00;60.30;;;;;;4998285;28;20205;-82
2023/06/20 12:41:57;;;;;;;1.40;1.00;;;37.10;61.00;;;;;;4990209;28;20240;-84
2023/06/20 12:44:24;;;;;;;1.40;0.80;;;37.30;60.50;;;;;;5001823;28;20293;-84
2023/06/20 12:46:51;;;;;;;1.40;0.88;;;37.50;59.70;;;;;;4988905;28;20236;-81
2023/06/20 12:49:18;;;;;;;2.08;1.88;;;37.50;60.30;;;;;;5003451;28;20582;-83
2023/06/20 12:51:45;;;;;;;1.40;0.80;;;37.80;60.10;;;;;;4988620;28;20225;-81
2023/06/20 12:54:14;;;;;;;1.38;0.80;;;38.10;59.00;;;;;;4994818;28;20213;-84
2023/06/20 12:56:41;;;;;;;1.40;0.80;;;38.30;57.60;;;;;;4990718;28;20244;-81